Scroll down
FLIGHT INFORMATION
United Parcel Service (UPS)

UPS3821

At Arrival Gate

KONT
 PHOG
DATE: 2019-08-21
GATE:  -
GATE DEPARTURE: 17:49
TAKEOFF: 17:58
DATE: 2019-08-21
GATE:  -
LANDING: 22:52
GATE ARRIVAL: 22:56
FLIGHT DATA
Crew: TOM LANDRY
Speed: 514 kts Altitude: 38000 ft
Stage Length: 2198 nm
Route: KONT GMN RZS DINTY DUETS DADIE DIALO DUSAC DRAYK DENNS PHOG
Block Time: 5.1 Flight Time: 4.9
Fuel Used: 98984 LB
TRACK DATA
50000 FT1000 KT
AIRCRAFT INFORMATION
Aircraft Type: B744F
Registration: N581UP
SELCAL:  MSN/LN: 25866 / 1002
Operator: UNITED PARCEL SERVICE (UPS)
Flights: 3 Block Time: 10.9 Flight Time: 10.4
Fuel Used: 215468 LB
  • DEPARTURE INFORMATION
    Date: 2019-08-21
    Airport: KONT
    Gate:  -
    Gate Departure: 17:49
    Takeoff: 17:58
    ARRIVAL INFORMATION
    Date: 2019-08-21
    Airport: PHOG
    Gate:  -
    Landing: 22:52
    Gate Arrival: 22:56
  • FLIGHT DATA
    Crew: TOM LANDRY
    Speed: 514 kts Altitude: 38000 ft
    Stage Length: 1187 nm
    Route: KONT GMN RZS DINTY DUETS DADIE DIALO DUSAC DRAYK DENNS PHOG
    Block Time: 5.1 Flight Time: 4.9
    Fuel Used: 98984 LB
  • AIRCRAFT INFORMATION
    Aircraft Type: B744F
    Registration: N581UP
    SELCAL:  MSN/LN: 25866 / 1002
    Operator: United Parcel Service (UPS)
    Flights: 3 Block Time: 10.9 Flight Time: 10.4
    Fuel Used: 215468 LB

DATALINK LOG | Newest first | Current as of: 2020-09-29 23:27:31
LABEL SEQUENCE CONTENT Dn/Up
QD575422:56 31.4▼ Dn
QC533522:52▼ Dn
2U2552PHOG 212154Z 04019KT 10SM FEW030 SCT050 31/22 A3004 RMK AO2 PK WND 04026/2127 SLP178 T03110222 $▲ Up
2S2552PHOG▼ Dn
QB595317:58▼ Dn
QA503817:49 130.8▼ Dn
2U3601KONT 211653Z 21004KT 10SM CLR 27/12 A2989 RMK AO2 SLP103 T02670117▲ Up
2S3601KONT▼ Dn
A33151CLEARED TO PHOG VIA POM1 GMN RZS DINTY R576 DENNS LNDHY1. SQUAWK 6252.▲ Up
Q02839[LINK ACK]▲ Up
Q02745[LINK TEST]▼ Dn


AIRCRAFT HISTORY
FLIGHT DATE FLIGHT NO. ORIGIN DESTINATION ROUTE BLOCK TIME FLIGHT TIME FUEL USED (LB) PILOT
2020-05-25UPS519PHNL KONT PHNL MKK BLUSH SESXI ALICA EBBER ELOYI ERROT ETNIC ETECO EDSEL EDTOO ELKEY DIRBY PHUNN SHHOW COAZT KARLB POXKU PDZ PDZ RW26R5.45105600Steven Perry
2019-08-23UPS9621PHOG PHNL PHOG OGG LNY GRAMY SOBOW SERAH SAKKI JULLE ALANA MAKOA RW08L0.70.410883Tom Landry
2019-08-21UPS3821KONT PHOG KONT GMN RZS DINTY DUETS DADIE DIALO DUSAC DRAYK DENNS PHOG5.14.998984Tom Landry